Terminal Aerodrome Forecast
Issued by NWS

Home | Current Version | Previous Version | Graphics & Text | Print | Product List | Glossary On
Versions: 1 2 3 4 5 6 7 8 9 10 11 12 13 14 15
335
FTUS43 KMPX 030520
TAFRWF
TAF
KRWF 030520Z 0306/0406 35022G26KT 1SM BLSN BR VV012
     FM031200 33020G26KT 4SM BLSN OVC015
     FM031800 32016G20KT 6SM BLSN SCT025
     FM032200 29008KT P6SM BKN250
     FM040300 27007KT P6SM OVC050=

USA.gov is the U.S. government's official web portal to all federal, state and local government web resources and services.